Time;durP1;ratioP1;P1;durP2;ratioP2;P2;SDS_P1;SDS_P2;PMS_P1;PMS_P2;Temp;Humidity;BMP_temperature;BMP_pressure;BME280_temperature;BME280_humidity;BME280_pressure;Samples;Min_cycle;Max_cycle;Signal;HPM_P1;HPM_P2
2020/12/26 00:01:24;;;;;;;3.03;0.70;;;2.40;93.10;;;;;;5094703;28;20039;-51
2020/12/26 00:07:31;;;;;;;6.85;0.82;;;2.40;93.10;;;;;;5094406;28;20054;-51
2020/12/26 00:09:56;;;;;;;2.80;0.80;;;2.40;93.10;;;;;;5094103;28;20032;-49
2020/12/26 00:12:22;;;;;;;4.63;1.17;;;2.40;93.10;;;;;;5093628;28;20494;-53
2020/12/26 00:14:48;;;;;;;3.20;0.80;;;2.40;93.10;;;;;;5094513;28;20047;-53
2020/12/26 00:17:15;;;;;;;3.53;0.70;;;2.30;93.10;;;;;;5094140;28;20123;-53
2020/12/26 00:19:40;;;;;;;2.83;0.70;;;2.40;93.20;;;;;;5094758;28;20044;-49
2020/12/26 00:22:06;;;;;;;4.85;0.90;;;2.30;93.20;;;;;;5094248;28;20485;-53
2020/12/26 00:24:32;;;;;;;3.72;1.00;;;2.30;93.10;;;;;;5094007;28;20070;-52
2020/12/26 00:30:38;;;;;;;6.18;0.93;;;2.30;93.30;;;;;;5094336;28;20031;-50
2020/12/26 00:33:04;;;;;;;4.70;1.00;;;2.40;93.30;;;;;;5093869;28;20470;-52
2020/12/26 00:35:29;;;;;;;4.97;1.10;;;2.40;93.40;;;;;;5093920;28;20039;-53
2020/12/26 00:37:55;;;;;;;4.63;0.82;;;2.40;93.40;;;;;;5094061;28;20044;-51
2020/12/26 00:44:01;;;;;;;9.60;0.70;;;2.40;93.40;;;;;;5093888;28;20063;-53
2020/12/26 00:46:28;;;;;;;3.63;1.02;;;2.40;93.40;;;;;;5093856;28;20059;-52
2020/12/26 00:48:53;;;;;;;5.55;1.38;;;2.50;93.40;;;;;;5093681;28;20036;-53
2020/12/26 00:51:19;;;;;;;5.10;0.95;;;2.50;93.30;;;;;;5093995;28;20048;-53
2020/12/26 00:53:45;;;;;;;5.50;0.95;;;2.50;93.40;;;;;;5093545;28;20044;-53
2020/12/26 00:56:10;;;;;;;6.15;1.15;;;2.50;93.30;;;;;;5093712;28;20091;-53
2020/12/26 00:58:36;;;;;;;2.60;0.90;;;2.50;93.40;;;;;;5093754;28;20059;-53
2020/12/26 01:01:02;;;;;;;11.00;0.95;;;2.50;93.40;;;;;;5093375;28;20043;-53
2020/12/26 01:07:08;;;;;;;4.70;0.90;;;2.60;93.50;;;;;;5093263;28;20039;-51
2020/12/26 01:09:34;;;;;;;3.72;0.80;;;2.50;93.40;;;;;;5093364;28;20398;-52
2020/12/26 01:12:00;;;;;;;4.63;1.02;;;2.60;93.50;;;;;;5093412;28;20047;-50
2020/12/26 01:14:25;;;;;;;6.05;0.82;;;2.60;93.40;;;;;;5093098;28;20482;-53
2020/12/26 01:20:32;;;;;;;7.78;0.82;;;2.70;93.40;;;;;;5093197;28;20031;-53
2020/12/26 01:22:57;;;;;;;3.90;1.10;;;2.70;93.70;;;;;;5092854;28;20048;-52
2020/12/26 01:25:23;;;;;;;2.70;0.80;;;2.70;93.40;;;;;;5093065;28;20090;-53
2020/12/26 01:27:49;;;;;;;7.70;1.15;;;2.70;93.30;;;;;;5092915;28;20043;-52
2020/12/26 01:30:14;;;;;;;3.58;0.93;;;2.70;93.40;;;;;;5093233;28;20040;-53
2020/12/26 01:32:40;;;;;;;5.22;1.00;;;2.70;93.40;;;;;;5092882;28;20036;-53
2020/12/26 01:38:46;;;;;;;3.60;0.88;;;2.80;93.40;;;;;;5092791;28;20047;-53
2020/12/26 01:41:15;;;;;;;7.38;1.00;;;2.80;93.40;;;;;;5092817;28;20036;-53
2020/12/26 01:43:56;;;;;;;4.50;0.90;;;2.80;93.30;;;;;;5092713;28;20048;-53
2020/12/26 01:46:25;;;;;;;7.05;1.15;;;2.90;93.40;;;;;;5092528;28;20282;-52
2020/12/26 01:48:51;;;;;;;3.05;0.60;;;2.90;93.40;;;;;;5093186;28;20040;-53
2020/12/26 01:51:18;;;;;;;3.47;1.00;;;2.90;93.40;;;;;;5092665;28;20040;-53
2020/12/26 01:53:45;;;;;;;7.85;1.40;;;2.90;93.40;;;;;;5092340;28;20060;-52
2020/12/26 01:56:10;;;;;;;4.53;0.82;;;2.90;93.40;;;;;;5092569;28;20040;-53
2020/12/26 02:02:17;;;;;;;3.85;0.70;;;3.10;93.20;;;;;;5092250;28;20115;-53
2020/12/26 02:04:43;;;;;;;3.53;0.63;;;3.10;93.50;;;;;;5092397;28;20067;-53
2020/12/26 02:07:08;;;;;;;9.10;0.98;;;3.10;93.20;;;;;;5092335;28;20076;-53
2020/12/26 02:13:14;;;;;;;5.43;1.00;;;3.10;93.20;;;;;;5092265;28;20031;-53
2020/12/26 02:15:40;;;;;;;3.00;0.60;;;3.20;93.20;;;;;;5091321;28;20040;-51
2020/12/26 02:21:46;;;;;;;5.65;0.90;;;3.20;93.20;;;;;;5092151;28;20085;-51
2020/12/26 02:24:12;;;;;;;7.55;0.98;;;3.30;93.10;;;;;;5091980;28;20075;-54
2020/12/26 02:30:18;;;;;;;4.72;0.70;;;3.30;93.10;;;;;;5092191;28;20055;-52
2020/12/26 02:32:44;;;;;;;5.53;1.00;;;3.40;93.10;;;;;;5092016;28;20064;-53
2020/12/26 02:35:09;;;;;;;2.97;0.52;;;3.40;93.10;;;;;;5091993;28;20470;-53
2020/12/26 02:37:35;;;;;;;7.22;0.75;;;3.30;93.10;;;;;;5091956;28;20040;-53
2020/12/26 02:40:01;;;;;;;5.47;0.90;;;3.40;93.10;;;;;;5092069;28;20044;-52
2020/12/26 02:42:26;;;;;;;4.85;0.88;;;3.40;93.10;;;;;;5092013;28;20035;-53
2020/12/26 02:44:52;;;;;;;3.17;0.75;;;3.40;93.10;;;;;;5092088;28;20040;-53
2020/12/26 02:50:58;;;;;;;4.03;0.73;;;3.40;93.10;;;;;;5091850;28;20047;-53
2020/12/26 02:53:25;;;;;;;7.45;1.00;;;3.50;93.00;;;;;;5091454;28;20486;-53
2020/12/26 02:59:31;;;;;;;3.53;0.65;;;3.40;93.00;;;;;;5091004;28;20075;-53
2020/12/26 03:01:57;;;;;;;3.10;0.80;;;3.50;93.10;;;;;;5090805;28;20443;-52
2020/12/26 03:04:22;;;;;;;4.00;0.82;;;3.40;93.10;;;;;;5091071;28;20036;-53
2020/12/26 03:06:48;;;;;;;8.75;0.98;;;3.40;93.00;;;;;;5090913;28;20105;-53
2020/12/26 03:09:13;;;;;;;4.60;0.85;;;3.40;93.10;;;;;;5091327;28;20499;-53
2020/12/26 03:11:39;;;;;;;4.45;1.00;;;3.40;93.10;;;;;;5090998;28;20032;-50
2020/12/26 03:14:05;;;;;;;6.28;0.85;;;3.40;93.10;;;;;;5090521;28;20043;-53
2020/12/26 03:20:12;;;;;;;8.10;1.10;;;3.40;93.00;;;;;;5090885;28;20105;-52
2020/12/26 03:22:37;;;;;;;3.58;0.95;;;3.40;93.10;;;;;;5090708;28;20040;-52
2020/12/26 03:25:06;;;;;;;3.72;1.40;;;3.40;93.10;;;;;;5090810;28;20043;-53
2020/12/26 03:31:14;;;;;;;7.88;1.30;;;3.40;93.20;;;;;;5091472;28;20070;-53
2020/12/26 03:33:39;;;;;;;3.67;1.17;;;3.40;93.30;;;;;;5095336;28;20046;-52
2020/12/26 03:36:05;;;;;;;5.28;0.80;;;3.30;93.20;;;;;;5095463;28;20048;-52
2020/12/26 03:38:30;;;;;;;7.75;1.30;;;3.30;93.30;;;;;;5093880;28;20060;-53
2020/12/26 03:40:56;;;;;;;4.50;1.00;;;3.40;93.40;;;;;;5095172;28;20070;-51
2020/12/26 03:43:22;;;;;;;4.78;1.13;;;3.40;93.40;;;;;;5095064;28;20390;-52
2020/12/26 03:45:47;;;;;;;5.60;1.45;;;3.40;93.30;;;;;;5094986;28;20115;-52
2020/12/26 03:48:13;;;;;;;5.15;1.42;;;3.40;93.30;;;;;;5094703;28;20101;-53
2020/12/26 03:50:38;;;;;;;5.40;1.38;;;3.30;93.40;;;;;;5095124;28;20046;-52
2020/12/26 03:56:45;;;;;;;7.47;2.15;;;3.30;93.40;;;;;;5094712;28;20554;-51
2020/12/26 03:59:11;;;;;;;4.45;1.48;;;3.40;93.50;;;;;;5094940;28;20097;-53
2020/12/26 04:01:37;;;;;;;6.07;1.58;;;3.30;93.40;;;;;;5094784;28;20036;-53
2020/12/26 04:04:03;;;;;;;5.18;1.60;;;3.40;93.40;;;;;;5094292;28;20040;-51
2020/12/26 04:06:28;;;;;;;4.38;1.70;;;3.30;93.40;;;;;;5094766;28;20039;-53
2020/12/26 04:08:54;;;;;;;3.83;1.77;;;3.30;93.40;;;;;;5094506;28;20497;-52
2020/12/26 04:11:20;;;;;;;4.78;1.67;;;3.30;93.40;;;;;;5094872;28;20040;-53
2020/12/26 04:13:45;;;;;;;5.97;1.80;;;3.40;93.30;;;;;;5094130;28;20040;-52
2020/12/26 04:16:12;;;;;;;7.50;2.15;;;3.30;93.30;;;;;;5094536;28;20036;-53
2020/12/26 04:18:38;;;;;;;6.07;2.08;;;3.30;93.20;;;;;;5094137;28;20034;-53
2020/12/26 04:21:04;;;;;;;3.85;1.83;;;3.30;93.20;;;;;;5094506;28;20044;-51
2020/12/26 04:23:29;;;;;;;3.83;1.90;;;3.30;93.20;;;;;;5093637;28;20497;-52
2020/12/26 04:25:55;;;;;;;7.15;2.63;;;3.20;93.20;;;;;;5094572;28;20047;-52
2020/12/26 04:28:21;;;;;;;4.47;2.47;;;3.20;93.20;;;;;;5093978;28;20054;-52
2020/12/26 04:30:46;;;;;;;5.18;2.22;;;3.20;93.20;;;;;;5094476;28;20043;-52
2020/12/26 04:36:52;;;;;;;6.32;2.78;;;3.10;93.20;;;;;;5093678;28;20047;-52
2020/12/26 04:39:18;;;;;;;5.28;3.28;;;3.10;93.30;;;;;;5094072;28;20036;-53
2020/12/26 04:41:44;;;;;;;7.07;3.55;;;3.00;93.30;;;;;;5093808;28;20035;-52
2020/12/26 04:47:57;;;;;;;4.75;3.55;;;3.00;93.50;;;;;;5093609;28;20410;-51
2020/12/26 04:50:34;;;;;;;9.18;3.65;;;3.00;93.60;;;;;;5094003;28;20039;-51
2020/12/26 04:53:04;;;;;;;9.23;3.80;;;3.00;93.50;;;;;;5094274;28;20101;-51
2020/12/26 04:59:12;;;;;;;6.63;3.40;;;2.90;93.60;;;;;;5093788;28;20055;-52
2020/12/26 05:01:40;;;;;;;7.70;3.35;;;2.90;93.70;;;;;;5093526;28;20069;-52
2020/12/26 05:07:48;;;;;;;6.05;3.50;;;2.90;93.80;;;;;;5093382;28;20035;-50
2020/12/26 05:10:14;;;;;;;5.72;3.25;;;2.90;93.90;;;;;;5093442;28;20036;-53
2020/12/26 05:12:39;;;;;;;8.27;3.38;;;2.90;93.80;;;;;;5093308;28;20089;-50
2020/12/26 05:18:48;;;;;;;5.63;2.90;;;2.80;93.90;;;;;;5093100;28;20085;-53
2020/12/26 05:21:25;;;;;;;4.57;2.78;;;2.80;93.90;;;;;;5093298;28;20398;-52
2020/12/26 05:27:31;;;;;;;9.85;2.78;;;2.80;93.90;;;;;;5093115;28;20085;-51
2020/12/26 05:29:58;;;;;;;5.03;2.45;;;2.80;94.10;;;;;;5093008;28;20436;-53
2020/12/26 05:36:05;;;;;;;7.95;2.67;;;2.80;94.00;;;;;;5092953;28;20481;-52
2020/12/26 05:38:31;;;;;;;8.40;2.47;;;2.90;94.00;;;;;;5092650;28;20123;-52
2020/12/26 05:41:01;;;;;;;4.10;2.13;;;2.90;94.00;;;;;;5092934;28;20422;-51
2020/12/26 05:43:29;;;;;;;4.95;2.17;;;2.90;94.00;;;;;;5092515;28;20119;-52
2020/12/26 05:45:56;;;;;;;4.85;2.30;;;2.90;93.90;;;;;;5092768;28;20397;-53
2020/12/26 05:48:24;;;;;;;3.58;2.08;;;2.90;94.10;;;;;;5092561;28;20075;-51
2020/12/26 05:50:53;;;;;;;6.50;2.10;;;3.00;93.90;;;;;;5092555;28;20040;-51
2020/12/26 05:57:19;;;;;;;3.03;1.88;;;3.00;93.80;;;;;;5092555;28;20097;-50
2020/12/26 05:59:52;;;;;;;7.93;2.55;;;3.00;93.90;;;;;;5092742;28;20050;-51
2020/12/26 06:06:02;;;;;;;4.22;2.35;;;3.10;93.80;;;;;;5092688;28;20425;-51
2020/12/26 06:08:29;;;;;;;7.82;2.88;;;3.10;93.70;;;;;;5091022;28;20490;-51
2020/12/26 06:10:57;;;;;;;3.80;2.20;;;3.10;93.70;;;;;;5092079;28;20074;-52
2020/12/26 06:13:25;;;;;;;6.82;3.00;;;3.10;93.70;;;;;;5090990;28;20486;-51
2020/12/26 06:15:53;;;;;;;9.05;3.17;;;3.10;93.70;;;;;;5091504;28;20090;-52
2020/12/26 06:18:20;;;;;;;6.57;3.55;;;3.10;94.00;;;;;;5091528;28;20040;-51
2020/12/26 06:20:52;;;;;;;6.18;2.88;;;3.10;93.70;;;;;;5079194;28;20044;-52
2020/12/26 06:23:22;;;;;;;4.75;3.17;;;3.20;93.70;;;;;;5075182;28;20052;-51
2020/12/26 06:25:55;;;;;;;4.70;2.75;;;3.20;93.70;;;;;;5085012;28;20040;-51
2020/12/26 06:28:30;;;;;;;4.93;2.88;;;3.20;93.70;;;;;;5072701;28;20051;-52
2020/12/26 06:31:03;;;;;;;6.35;3.20;;;3.20;93.60;;;;;;5076310;28;20093;-52
2020/12/26 06:33:38;;;;;;;6.03;2.95;;;3.20;93.60;;;;;;5076419;28;20032;-52
2020/12/26 06:36:04;;;;;;;5.68;2.80;;;3.20;93.60;;;;;;5073683;28;20467;-53
2020/12/26 06:38:30;;;;;;;8.18;3.28;;;3.20;93.60;;;;;;5075942;28;20159;-52
2020/12/26 06:41:01;;;;;;;5.53;3.30;;;3.20;93.50;;;;;;5075203;28;20495;-52
2020/12/26 06:43:39;;;;;;;4.32;3.30;;;3.30;93.50;;;;;;5074566;28;20033;-51
2020/12/26 06:46:28;;;;;;;6.88;3.20;;;3.30;93.50;;;;;;5077090;28;20101;-53
2020/12/26 06:48:56;;;;;;;7.72;3.33;;;3.30;93.60;;;;;;5072437;28;20044;-52
2020/12/26 06:51:28;;;;;;;7.22;3.63;;;3.30;93.50;;;;;;5078623;28;20521;-53
2020/12/26 06:54:03;;;;;;;6.07;3.50;;;3.30;93.50;;;;;;5075615;28;20119;-51
2020/12/26 06:56:34;;;;;;;7.30;4.15;;;3.30;93.50;;;;;;5075773;28;20044;-51
2020/12/26 06:59:11;;;;;;;4.93;3.08;;;3.30;93.40;;;;;;5071219;28;20169;-53
2020/12/26 07:01:38;;;;;;;5.78;3.78;;;3.30;93.40;;;;;;5076555;28;20039;-52
2020/12/26 07:04:07;;;;;;;6.90;3.67;;;3.30;93.50;;;;;;5073990;28;20505;-53
2020/12/26 07:06:53;;;;;;;6.28;3.53;;;3.30;93.50;;;;;;5081425;28;20132;-53
2020/12/26 07:09:41;;;;;;;5.70;3.90;;;3.40;93.40;;;;;;5084414;28;20035;-53
2020/12/26 07:12:08;;;;;;;5.43;4.00;;;3.40;93.50;;;;;;5075228;28;20392;-53
2020/12/26 07:14:36;;;;;;;7.15;4.18;;;3.40;93.50;;;;;;5081331;28;20040;-53
2020/12/26 07:17:03;;;;;;;5.15;4.25;;;3.40;93.40;;;;;;5078053;28;20036;-53
2020/12/26 07:19:58;;;;;;;6.85;4.30;;;3.40;93.50;;;;;;5080546;28;20047;-53
2020/12/26 07:22:29;;;;;;;6.32;3.97;;;3.50;93.50;;;;;;5075370;28;20170;-52
2020/12/26 07:25:06;;;;;;;7.85;4.45;;;3.50;93.40;;;;;;5079568;28;20109;-52
2020/12/26 07:27:34;;;;;;;6.63;4.38;;;3.50;93.40;;;;;;5083480;28;20166;-52
2020/12/26 07:30:07;;;;;;;5.80;4.15;;;3.60;93.40;;;;;;5082216;28;20064;-53
2020/12/26 07:32:36;;;;;;;8.55;4.18;;;3.50;93.30;;;;;;5080237;28;20074;-53
2020/12/26 07:35:19;;;;;;;4.70;4.18;;;3.60;93.40;;;;;;5083025;28;20036;-53
2020/12/26 07:37:52;;;;;;;9.80;4.88;;;3.60;93.40;;;;;;5081453;28;20041;-53
2020/12/26 07:40:23;;;;;;;9.02;4.55;;;3.60;93.40;;;;;;5079532;28;20072;-52
2020/12/26 07:42:49;;;;;;;8.35;4.50;;;3.60;93.40;;;;;;5078778;28;20040;-52
2020/12/26 07:45:26;;;;;;;7.05;4.47;;;3.60;93.40;;;;;;5079204;28;20040;-51
2020/12/26 07:47:57;;;;;;;6.82;4.45;;;3.60;93.50;;;;;;5077492;28;20483;-51
2020/12/26 07:50:25;;;;;;;7.55;4.07;;;3.60;93.50;;;;;;5086756;28;20425;-52
2020/12/26 07:52:52;;;;;;;8.18;4.35;;;3.70;93.50;;;;;;5083519;28;20031;-51
2020/12/26 07:55:19;;;;;;;5.50;3.97;;;3.70;93.50;;;;;;5084819;28;20046;-52
2020/12/26 07:57:45;;;;;;;7.05;3.75;;;3.70;93.40;;;;;;5079327;28;20446;-48
2020/12/26 08:00:24;;;;;;;8.90;4.18;;;3.80;93.40;;;;;;5085860;28;20036;-53
2020/12/26 08:02:57;;;;;;;6.95;4.18;;;3.80;93.40;;;;;;5082132;28;20033;-49
2020/12/26 08:05:25;;;;;;;6.13;3.70;;;3.80;93.40;;;;;;5081166;28;20070;-51
2020/12/26 08:07:51;;;;;;;7.80;3.88;;;3.80;93.50;;;;;;5079586;28;20130;-51
2020/12/26 08:10:18;;;;;;;8.35;4.22;;;3.90;93.80;;;;;;5082208;28;20127;-53
2020/12/26 08:12:54;;;;;;;6.85;3.58;;;3.90;93.50;;;;;;5081688;28;20044;-51
2020/12/26 08:15:25;;;;;;;7.70;3.25;;;3.90;93.50;;;;;;5083440;28;20036;-51
2020/12/26 08:17:53;;;;;;;7.88;3.00;;;3.90;93.40;;;;;;5077011;28;20040;-47
2020/12/26 08:20:20;;;;;;;4.72;2.97;;;4.00;93.40;;;;;;5079508;28;20068;-52
2020/12/26 08:22:46;;;;;;;4.20;2.88;;;3.90;93.30;;;;;;5080329;28;20486;-51
2020/12/26 08:25:13;;;;;;;6.20;2.95;;;4.00;93.30;;;;;;5086158;28;20056;-51
2020/12/26 08:27:40;;;;;;;4.95;2.33;;;4.00;93.10;;;;;;5081233;28;20040;-53
2020/12/26 08:30:12;;;;;;;5.85;2.63;;;4.00;93.10;;;;;;5079787;28;20054;-50
2020/12/26 08:32:55;;;;;;;7.50;2.70;;;4.00;93.00;;;;;;5083880;28;20043;-52
2020/12/26 08:35:23;;;;;;;4.40;2.15;;;3.90;93.00;;;;;;5078178;28;20028;-52
2020/12/26 08:37:58;;;;;;;4.35;1.80;;;4.00;93.10;;;;;;5080628;28;20411;-52
2020/12/26 08:40:25;;;;;;;5.25;1.92;;;4.00;93.10;;;;;;5078974;28;20487;-50
2020/12/26 08:42:51;;;;;;;6.35;2.50;;;4.00;93.10;;;;;;5074573;28;20040;-52
2020/12/26 08:45:27;;;;;;;5.35;1.88;;;4.10;93.10;;;;;;5079606;28;20032;-52
2020/12/26 08:47:55;;;;;;;4.18;1.40;;;4.10;93.10;;;;;;5077799;28;20505;-51
2020/12/26 08:50:21;;;;;;;4.80;1.90;;;4.10;93.00;;;;;;5072833;28;20033;-53
2020/12/26 08:53:00;;;;;;;7.95;1.55;;;4.10;93.00;;;;;;5076794;28;20041;-52
2020/12/26 08:55:26;;;;;;;3.35;1.50;;;4.20;93.00;;;;;;5082544;28;20121;-48
2020/12/26 08:57:59;;;;;;;5.28;1.40;;;4.20;93.00;;;;;;5082821;28;20489;-53
2020/12/26 09:00:27;;;;;;;4.57;1.27;;;4.20;92.90;;;;;;5081723;28;20043;-50
2020/12/26 09:02:54;;;;;;;2.97;1.15;;;4.20;92.80;;;;;;5079549;28;20043;-51
2020/12/26 09:05:31;;;;;;;4.93;1.20;;;4.30;92.80;;;;;;5080816;28;20040;-51
2020/12/26 09:08:04;;;;;;;5.22;1.08;;;4.30;92.80;;;;;;5080812;28;20044;-53
2020/12/26 09:10:31;;;;;;;3.53;0.95;;;4.30;92.80;;;;;;5080568;28;20052;-53
2020/12/26 09:13:04;;;;;;;6.28;0.90;;;4.30;92.80;;;;;;5085571;28;20546;-49
2020/12/26 09:16:02;;;;;;;5.70;1.00;;;4.30;92.80;;;;;;5079982;28;20041;-53
2020/12/26 09:18:33;;;;;;;4.45;0.82;;;4.40;92.70;;;;;;5051925;28;20186;-53
2020/12/26 09:21:00;;;;;;;4.13;0.80;;;4.40;92.70;;;;;;5095919;28;20052;-49
2020/12/26 09:23:34;;;;;;;5.45;0.63;;;4.50;92.70;;;;;;5078390;28;20063;-52
2020/12/26 09:26:14;;;;;;;2.53;0.70;;;4.50;92.60;;;;;;5080069;28;20063;-51
2020/12/26 09:28:46;;;;;;;1.42;0.57;;;4.60;92.60;;;;;;5076055;28;20044;-52
2020/12/26 09:31:13;;;;;;;3.72;1.00;;;4.70;92.30;;;;;;5078360;28;20398;-51
2020/12/26 09:33:39;;;;;;;5.05;0.80;;;4.80;92.30;;;;;;5079847;28;20478;-52
2020/12/26 09:36:08;;;;;;;2.58;0.73;;;4.80;92.00;;;;;;5078820;28;20308;-51
2020/12/26 09:38:33;;;;;;;3.17;0.68;;;4.80;92.00;;;;;;5078858;28;20036;-52
2020/12/26 09:41:12;;;;;;;2.22;0.73;;;4.80;91.90;;;;;;5079100;28;20085;-52
2020/12/26 09:43:38;;;;;;;2.83;0.40;;;4.90;91.90;;;;;;5081720;28;20043;-52
2020/12/26 09:46:04;;;;;;;4.78;0.57;;;4.90;91.80;;;;;;5078371;28;20045;-51
2020/12/26 09:48:30;;;;;;;4.78;0.52;;;4.90;91.80;;;;;;5085165;28;20395;-52
2020/12/26 09:50:56;;;;;;;2.80;0.60;;;5.00;91.70;;;;;;5079869;28;20410;-52
2020/12/26 09:53:21;;;;;;;4.40;1.25;;;4.90;91.60;;;;;;5080874;28;20040;-48
2020/12/26 09:55:47;;;;;;;3.85;0.55;;;5.00;91.70;;;;;;5082344;28;20067;-52
2020/12/26 09:58:15;;;;;;;2.72;0.70;;;5.00;91.80;;;;;;5077129;28;20048;-52
2020/12/26 10:00:41;;;;;;;3.35;0.60;;;5.00;91.70;;;;;;5079045;28;20042;-50
2020/12/26 10:03:06;;;;;;;2.13;0.60;;;5.00;91.50;;;;;;5084024;28;20036;-49
2020/12/26 10:05:32;;;;;;;5.05;0.47;;;5.00;91.40;;;;;;5082406;28;20032;-53
2020/12/26 10:07:58;;;;;;;3.22;0.70;;;5.00;91.50;;;;;;5080179;28;20089;-52
2020/12/26 10:10:24;;;;;;;3.25;0.60;;;5.00;91.50;;;;;;5082130;28;20037;-52
2020/12/26 10:12:49;;;;;;;4.03;0.63;;;5.00;91.60;;;;;;5078743;28;20483;-49
2020/12/26 10:15:18;;;;;;;5.18;0.70;;;5.00;91.70;;;;;;5078428;28;20051;-51
2020/12/26 10:17:44;;;;;;;5.55;1.20;;;5.10;91.60;;;;;;5081363;28;20584;-53
2020/12/26 10:20:09;;;;;;;7.32;0.88;;;5.10;91.60;;;;;;5079051;28;20054;-53
2020/12/26 10:22:35;;;;;;;4.13;0.90;;;5.10;91.60;;;;;;5082924;28;20123;-52
2020/12/26 10:25:01;;;;;;;2.30;0.50;;;5.20;91.30;;;;;;5080771;28;20525;-50
2020/12/26 10:27:26;;;;;;;3.03;0.80;;;5.20;91.30;;;;;;5071828;28;20499;-53
2020/12/26 10:29:52;;;;;;;2.88;0.70;;;5.20;91.10;;;;;;5080995;28;20035;-51
2020/12/26 10:32:18;;;;;;;4.03;0.60;;;5.30;91.20;;;;;;5080761;28;20032;-53
2020/12/26 10:34:43;;;;;;;3.25;0.65;;;5.30;91.20;;;;;;5080099;28;20040;-53
2020/12/26 10:37:12;;;;;;;5.45;1.08;;;5.30;91.20;;;;;;5075785;28;20469;-52
2020/12/26 10:39:38;;;;;;;4.57;1.13;;;5.30;90.80;;;;;;5083958;28;20040;-50
2020/12/26 10:42:03;;;;;;;4.13;1.10;;;5.30;90.60;;;;;;5080293;28;20673;-52
2020/12/26 10:44:29;;;;;;;3.78;0.80;;;5.30;90.70;;;;;;5083218;28;20136;-52
2020/12/26 10:46:54;;;;;;;3.55;0.90;;;5.40;90.50;;;;;;5082699;28;20122;-52
2020/12/26 10:49:20;;;;;;;3.13;1.10;;;5.40;90.60;;;;;;5081400;28;20028;-51
2020/12/26 10:51:49;;;;;;;4.00;0.82;;;5.30;90.60;;;;;;5082987;28;20058;-52
2020/12/26 10:54:15;;;;;;;5.15;0.77;;;5.40;90.70;;;;;;5082986;28;20039;-51
2020/12/26 10:56:47;;;;;;;5.78;0.90;;;5.40;90.30;;;;;;5082262;28;20033;-52
2020/12/26 10:59:13;;;;;;;4.72;0.80;;;5.40;90.60;;;;;;5083990;28;20048;-53
2020/12/26 11:01:39;;;;;;;5.20;1.45;;;5.30;90.50;;;;;;5085977;28;20127;-51
2020/12/26 11:04:05;;;;;;;5.00;1.20;;;5.40;90.50;;;;;;5078792;28;20403;-52
2020/12/26 11:06:31;;;;;;;2.80;1.10;;;5.40;90.70;;;;;;5084216;28;20409;-52
2020/12/26 11:08:57;;;;;;;4.30;1.15;;;5.50;90.70;;;;;;5081257;28;20049;-50
2020/12/26 11:11:23;;;;;;;3.40;1.23;;;5.50;90.60;;;;;;5083172;28;20052;-52
2020/12/26 11:13:49;;;;;;;5.97;1.40;;;5.50;90.50;;;;;;5081359;28;20391;-53
2020/12/26 11:16:15;;;;;;;4.32;1.38;;;5.60;90.30;;;;;;5081185;28;20032;-53
2020/12/26 11:18:42;;;;;;;6.30;1.65;;;5.80;90.70;;;;;;5081598;28;20072;-51
2020/12/26 11:21:15;;;;;;;3.45;1.30;;;5.90;90.70;;;;;;5078272;28;20111;-53
2020/12/26 11:23:42;;;;;;;3.97;1.30;;;6.00;90.40;;;;;;5083598;28;20444;-52
2020/12/26 11:26:08;;;;;;;5.22;1.38;;;5.90;89.40;;;;;;5081051;28;20122;-52
2020/12/26 11:28:34;;;;;;;5.43;1.20;;;5.90;89.50;;;;;;5080741;28;20048;-52
2020/12/26 11:30:59;;;;;;;3.70;1.20;;;5.90;89.70;;;;;;5079772;28;20550;-52
2020/12/26 11:33:25;;;;;;;4.30;1.60;;;5.80;89.70;;;;;;5076556;28;20056;-53
2020/12/26 11:35:51;;;;;;;4.00;1.25;;;5.80;90.10;;;;;;5080278;28;20127;-53
2020/12/26 11:38:16;;;;;;;3.40;1.10;;;5.70;90.10;;;;;;5080766;28;20036;-53
2020/12/26 11:40:42;;;;;;;4.80;1.15;;;5.70;90.00;;;;;;5082364;28;20494;-53
2020/12/26 11:43:08;;;;;;;3.53;1.02;;;5.70;90.30;;;;;;5078388;28;20036;-52
2020/12/26 11:45:34;;;;;;;5.35;1.17;;;5.70;90.20;;;;;;5080691;28;20069;-53
2020/12/26 11:48:00;;;;;;;4.65;1.65;;;5.70;90.00;;;;;;5082473;28;20040;-52
2020/12/26 11:50:25;;;;;;;4.03;1.27;;;5.70;89.20;;;;;;5080558;28;20047;-53
2020/12/26 11:52:51;;;;;;;5.13;1.45;;;5.70;89.40;;;;;;5080485;28;20101;-55
2020/12/26 11:55:17;;;;;;;8.80;1.80;;;5.70;89.30;;;;;;5079565;28;20044;-55
2020/12/26 11:57:44;;;;;;;7.35;1.42;;;5.70;89.30;;;;;;5078544;28;20120;-55
2020/12/26 12:00:10;;;;;;;5.85;1.40;;;5.70;89.20;;;;;;5084344;28;20033;-55
2020/12/26 12:02:35;;;;;;;3.30;1.13;;;5.70;89.70;;;;;;5083126;28;20040;-55
2020/12/26 12:05:01;;;;;;;7.32;1.63;;;5.70;89.30;;;;;;5077262;28;20036;-55
2020/12/26 12:07:27;;;;;;;6.47;1.40;;;5.70;89.20;;;;;;5080357;28;20043;-55
2020/12/26 12:09:53;;;;;;;3.88;1.00;;;5.80;89.60;;;;;;5079824;28;20437;-55
2020/12/26 12:12:18;;;;;;;4.13;1.45;;;5.80;88.90;;;;;;5081395;28;20035;-55
2020/12/26 12:14:44;;;;;;;3.78;1.40;;;5.80;89.00;;;;;;5080813;28;20380;-55
2020/12/26 12:17:10;;;;;;;2.55;1.20;;;5.80;88.50;;;;;;5080298;28;20274;-54
2020/12/26 12:19:36;;;;;;;4.80;1.10;;;5.80;88.80;;;;;;5082373;28;20039;-55
2020/12/26 12:22:01;;;;;;;6.47;1.95;;;5.90;88.00;;;;;;5079366;28;20032;-55
2020/12/26 12:24:27;;;;;;;3.13;1.27;;;5.90;88.00;;;;;;5082310;28;20124;-55
2020/12/26 12:26:52;;;;;;;4.60;1.30;;;5.90;88.00;;;;;;5080093;28;20028;-53
2020/12/26 12:29:18;;;;;;;3.13;1.60;;;5.90;88.00;;;;;;5081613;28;20032;-55
2020/12/26 12:31:44;;;;;;;2.10;0.95;;;5.90;88.40;;;;;;5080709;28;20044;-55
2020/12/26 12:34:09;;;;;;;3.42;1.08;;;5.90;88.60;;;;;;5080902;28;20086;-55
2020/12/26 12:36:35;;;;;;;5.10;1.50;;;5.90;88.30;;;;;;5083368;28;20039;-55
2020/12/26 12:39:02;;;;;;;2.47;1.20;;;5.90;88.30;;;;;;5081809;28;20043;-55
2020/12/26 12:41:28;;;;;;;3.97;1.60;;;5.90;89.00;;;;;;5079713;28;20097;-55
2020/12/26 12:43:55;;;;;;;5.93;1.45;;;5.90;89.00;;;;;;5080519;28;20107;-55
2020/12/26 12:46:21;;;;;;;5.72;1.10;;;5.90;88.90;;;;;;5079986;28;20059;-54
2020/12/26 12:48:46;;;;;;;5.40;1.42;;;5.90;88.50;;;;;;5076845;28;20469;-55
2020/12/26 12:51:12;;;;;;;7.53;1.20;;;5.90;88.00;;;;;;5076863;28;20033;-55
2020/12/26 12:53:38;;;;;;;2.90;1.10;;;5.90;87.80;;;;;;5074878;28;20045;-55
2020/12/26 12:56:04;;;;;;;3.25;1.20;;;5.90;88.00;;;;;;5078171;28;20494;-54
2020/12/26 12:58:29;;;;;;;5.13;1.50;;;5.90;87.80;;;;;;5076700;28;20039;-54
2020/12/26 13:00:55;;;;;;;4.38;1.50;;;5.80;87.80;;;;;;5077074;28;20047;-54
2020/12/26 13:03:21;;;;;;;7.75;1.40;;;5.80;87.80;;;;;;5075822;28;20490;-54
2020/12/26 13:05:47;;;;;;;4.05;1.73;;;5.80;88.20;;;;;;5078510;28;20032;-54
2020/12/26 13:08:12;;;;;;;4.25;1.13;;;5.80;87.90;;;;;;5077327;28;20040;-54
2020/12/26 13:10:40;;;;;;;6.47;1.52;;;5.80;88.50;;;;;;5075142;28;20048;-54
2020/12/26 13:13:06;;;;;;;5.03;1.65;;;5.80;88.40;;;;;;5076064;28;20032;-55
2020/12/26 13:15:31;;;;;;;4.22;1.08;;;5.80;88.50;;;;;;5078868;28;20048;-54
2020/12/26 13:17:57;;;;;;;3.33;1.33;;;5.70;88.30;;;;;;5080737;28;20127;-54
2020/12/26 13:20:23;;;;;;;4.15;1.40;;;5.70;88.90;;;;;;5077794;28;20562;-54
2020/12/26 13:22:49;;;;;;;4.57;1.55;;;5.70;88.80;;;;;;5073851;28;20036;-54
2020/12/26 13:25:15;;;;;;;5.05;1.20;;;5.70;89.00;;;;;;5074642;28;20040;-54
2020/12/26 13:27:40;;;;;;;3.83;1.10;;;5.70;88.50;;;;;;5080757;28;20067;-53
2020/12/26 13:30:06;;;;;;;4.63;1.23;;;5.70;88.60;;;;;;5078925;28;20055;-54
2020/12/26 13:32:32;;;;;;;4.75;1.55;;;5.70;88.70;;;;;;5074377;28;20773;-53
2020/12/26 13:34:57;;;;;;;5.95;1.33;;;5.80;88.90;;;;;;5077206;28;20032;-54
2020/12/26 13:37:23;;;;;;;3.92;1.40;;;5.80;88.90;;;;;;5075354;28;20037;-54
2020/12/26 13:39:48;;;;;;;5.97;1.20;;;5.70;89.00;;;;;;5076844;28;20036;-55
2020/12/26 13:42:14;;;;;;;5.88;1.02;;;5.70;88.90;;;;;;5076856;28;20074;-54
2020/12/26 13:44:39;;;;;;;4.15;1.13;;;5.70;89.00;;;;;;5076388;28;20039;-55
2020/12/26 13:47:05;;;;;;;2.65;0.90;;;5.70;89.00;;;;;;5079035;28;20063;-54
2020/12/26 13:49:31;;;;;;;3.50;1.35;;;5.70;88.90;;;;;;5083733;28;20051;-54
2020/12/26 13:51:56;;;;;;;2.95;1.17;;;5.70;88.70;;;;;;5074152;28;20103;-54
2020/12/26 13:54:24;;;;;;;4.05;1.13;;;5.70;89.00;;;;;;5077234;28;20482;-54
2020/12/26 13:56:49;;;;;;;1.80;0.95;;;5.70;89.00;;;;;;5076437;28;20037;-54
2020/12/26 13:59:15;;;;;;;3.25;1.13;;;5.70;89.10;;;;;;5079853;28;20028;-55
2020/12/26 14:01:44;;;;;;;5.78;1.15;;;5.70;89.00;;;;;;5078269;28;20036;-54
2020/12/26 14:04:12;;;;;;;5.50;1.13;;;5.70;89.00;;;;;;5076452;28;20094;-54
2020/12/26 14:06:38;;;;;;;4.05;1.23;;;5.70;89.10;;;;;;5078455;28;20398;-54
2020/12/26 14:09:06;;;;;;;3.55;0.90;;;5.70;88.70;;;;;;5077124;28;20867;-54
2020/12/26 14:11:33;;;;;;;6.57;0.80;;;5.70;89.00;;;;;;5080879;28;20052;-54
2020/12/26 14:13:58;;;;;;;2.58;0.90;;;5.70;89.00;;;;;;5074401;28;20044;-54
2020/12/26 14:16:26;;;;;;;3.30;1.20;;;5.70;89.20;;;;;;5076635;28;20033;-55
2020/12/26 14:18:53;;;;;;;4.35;1.40;;;5.70;89.40;;;;;;5078396;28;20048;-54
2020/12/26 14:21:22;;;;;;;3.38;1.15;;;5.60;89.20;;;;;;5073954;28;20044;-54
2020/12/26 14:23:48;;;;;;;1.75;0.88;;;5.60;89.70;;;;;;5071414;28;20036;-54
2020/12/26 14:26:14;;;;;;;2.97;1.10;;;5.60;90.10;;;;;;5079225;28;20035;-54
2020/12/26 14:28:39;;;;;;;2.42;0.70;;;5.60;90.20;;;;;;5079471;28;20044;-54